Terminal Aerodrome Forecast
Issued by NWS

Home | Current Version | Previous Version | Text Only | Print | Product List | Glossary On
Versions: 1 2 3 4 5 6 7 8 9 10 11 12 13 14 15 16 17 18 19 20 21 22 23 24 25 26 27 28 29 30 31 32 33 34 35 36 37 38 39 40 41 42
236
FTUS43 KDTX 181723
TAFYIP
TAF
KYIP 181723Z 1818/1918 24008KT P6SM OVC010
     FM190600 21005KT 5SM BR BKN008
     FM190900 21004KT 2SM BR BKN004
     FM191500 20006KT 4SM BR BKN007=

USA.gov is the U.S. government's official web portal to all federal, state and local government web resources and services.